createdAt,value
2022-11-25T00:01:09.136Z,98204.47
2022-11-25T00:03:38.743Z,98208.38
2022-11-25T00:06:12.049Z,98201.34
2022-11-25T00:08:40.615Z,98217.75
2022-11-25T00:11:08.762Z,98211.25
2022-11-25T00:13:37.747Z,98216.84
2022-11-25T00:16:08.001Z,98209.88
2022-11-25T00:18:36.667Z,98212.91
2022-11-25T00:21:09.356Z,98210.84
2022-11-25T00:23:38.420Z,98218.03
2022-11-25T00:26:10.470Z,98212.84
2022-11-25T00:28:39.233Z,98223.47
2022-11-25T00:31:09.426Z,98220.91
2022-11-25T00:33:37.605Z,98218.59
2022-11-25T00:36:09.193Z,98235.00
2022-11-25T00:38:37.186Z,98225.97
2022-11-25T00:41:22.867Z,98228.16
2022-11-25T00:44:08.481Z,98229.72
2022-11-25T00:46:36.435Z,98219.44
2022-11-25T00:49:04.442Z,98222.63
2022-11-25T00:51:33.707Z,98221.81
2022-11-25T00:54:01.655Z,98219.44
2022-11-25T00:56:30.474Z,98230.34
2022-11-25T00:58:59.455Z,98231.50
2022-11-25T01:01:27.610Z,98232.41
2022-11-25T01:03:55.540Z,98229.19
2022-11-25T01:06:23.976Z,98233.00
2022-11-25T01:08:53.299Z,98236.22
2022-11-25T01:11:23.965Z,98236.59
2022-11-25T01:14:00.703Z,98242.22
2022-11-25T01:16:30.364Z,98239.13
2022-11-25T01:18:59.341Z,98237.31
2022-11-25T01:21:29.769Z,98238.22
2022-11-25T01:24:00.687Z,98243.16
2022-11-25T01:26:29.548Z,98238.31
2022-11-25T01:28:59.128Z,98248.88
2022-11-25T01:31:29.116Z,98242.53
2022-11-25T01:34:02.799Z,98233.28
2022-11-25T01:36:36.483Z,98236.81
2022-11-25T01:39:06.204Z,98236.22
2022-11-25T01:41:36.651Z,98238.19
2022-11-25T01:44:10.929Z,98239.63
2022-11-25T01:46:48.016Z,98239.25
2022-11-25T01:49:18.936Z,98236.47
2022-11-25T01:51:52.290Z,98238.31
2022-11-25T01:54:27.053Z,98233.00
2022-11-25T01:57:00.939Z,98233.56
2022-11-25T01:59:31.083Z,98219.03
2022-11-25T02:01:59.989Z,98230.31
2022-11-25T02:04:35.401Z,98236.19
2022-11-25T02:07:10.904Z,98226.16
2022-11-25T02:09:42.515Z,98223.91
2022-11-25T02:12:11.121Z,98223.81
2022-11-25T02:14:39.308Z,98219.53
2022-11-25T02:17:07.297Z,98221.91
2022-11-25T02:19:48.262Z,98234.44
2022-11-25T02:22:25.713Z,98228.97
2022-11-25T02:25:03.571Z,98235.88
2022-11-25T02:27:33.003Z,98232.66
2022-11-25T02:30:01.087Z,98231.81
2022-11-25T02:32:29.051Z,98225.03
2022-11-25T02:34:57.099Z,98226.06
2022-11-25T02:37:25.479Z,98230.16
2022-11-25T02:39:54.691Z,98226.63
2022-11-25T02:42:24.167Z,98225.97
2022-11-25T02:44:53.728Z,98222.00
2022-11-25T02:47:21.657Z,98218.25
2022-11-25T02:49:49.557Z,98214.13
2022-11-25T02:52:17.525Z,98213.88
2022-11-25T02:54:45.460Z,98207.06
2022-11-25T02:57:13.355Z,98215.38
2022-11-25T02:59:41.272Z,98212.09
2022-11-25T03:02:11.247Z,98218.84
2022-11-25T03:04:39.218Z,98221.81
2022-11-25T03:07:07.126Z,98224.94
2022-11-25T03:09:35.151Z,98232.06
2022-11-25T03:12:21.292Z,98222.22
2022-11-25T03:14:54.131Z,98223.78
2022-11-25T03:17:23.490Z,98213.44
2022-11-25T03:19:51.441Z,98220.25
2022-11-25T03:22:19.351Z,98230.25
2022-11-25T03:24:47.324Z,98236.06
2022-11-25T03:27:15.521Z,98230.16
2022-11-25T03:29:43.616Z,98237.41
2022-11-25T03:32:11.601Z,98241.06
2022-11-25T03:34:41.149Z,98250.78
2022-11-25T03:37:09.510Z,98238.53
2022-11-25T03:39:38.400Z,98248.16
2022-11-25T03:42:07.993Z,98256.97
2022-11-25T03:44:36.291Z,98252.63
2022-11-25T03:47:04.944Z,98253.53
2022-11-25T03:49:33.547Z,98254.25
2022-11-25T03:52:03.070Z,98253.91
2022-11-25T03:54:31.908Z,98248.63
2022-11-25T03:57:19.084Z,98258.19
2022-11-25T03:59:47.095Z,98255.66
2022-11-25T04:02:16.037Z,98251.84
2022-11-25T04:04:44.141Z,98248.22
2022-11-25T04:07:13.759Z,98248.78
2022-11-25T04:09:42.138Z,98255.00
2022-11-25T04:12:27.993Z,98253.03
2022-11-25T04:15:06.028Z,98260.47
2022-11-25T04:17:34.220Z,98256.72
2022-11-25T04:20:02.194Z,98261.66
2022-11-25T04:22:32.375Z,98263.13
2022-11-25T04:25:02.658Z,98258.84
2022-11-25T04:27:30.627Z,98262.41
2022-11-25T04:29:59.085Z,98261.72
2022-11-25T04:32:28.574Z,98271.69
2022-11-25T04:34:56.618Z,98268.41
2022-11-25T04:37:24.583Z,98278.69
2022-11-25T04:39:55.030Z,98275.75
2022-11-25T04:42:36.667Z,98270.66
2022-11-25T04:45:25.668Z,98273.75
2022-11-25T04:47:56.119Z,98277.22
2022-11-25T04:50:25.552Z,98279.16
2022-11-25T04:53:03.843Z,98283.63
2022-11-25T04:55:33.348Z,98288.53
2022-11-25T04:58:05.183Z,98281.91
2022-11-25T05:00:34.323Z,98285.66
2022-11-25T05:03:03.301Z,98290.53
2022-11-25T05:05:33.135Z,98294.34
2022-11-25T05:08:01.115Z,98299.94
2022-11-25T05:10:29.339Z,98296.50
2022-11-25T05:12:59.646Z,98297.97
2022-11-25T05:15:27.587Z,98300.06
2022-11-25T05:17:56.138Z,98303.69
2022-11-25T05:20:39.883Z,98310.16
2022-11-25T05:23:08.761Z,98310.16
2022-11-25T05:25:36.701Z,98314.28
2022-11-25T05:28:24.269Z,98313.34
2022-11-25T05:30:52.366Z,98311.44
2022-11-25T05:33:21.450Z,98316.72
2022-11-25T05:35:55.631Z,98306.06
2022-11-25T05:38:24.827Z,98301.72
2022-11-25T05:40:53.369Z,98315.16
2022-11-25T05:43:21.558Z,98315.25
2022-11-25T05:45:50.880Z,98317.53
2022-11-25T05:48:19.094Z,98320.94
2022-11-25T05:50:47.877Z,98330.00
2022-11-25T05:53:22.090Z,98330.94
2022-11-25T05:55:57.489Z,98334.38
2022-11-25T05:58:45.866Z,98339.59
2022-11-25T06:01:17.949Z,98337.59
2022-11-25T06:03:47.440Z,98342.00
2022-11-25T06:06:16.905Z,98336.25
2022-11-25T06:08:45.459Z,98341.47
2022-11-25T06:11:17.470Z,98340.50
2022-11-25T06:13:46.634Z,98346.16
2022-11-25T06:16:17.908Z,98347.28
2022-11-25T06:18:50.179Z,98353.22
2022-11-25T06:21:19.366Z,98345.84
2022-11-25T06:23:47.671Z,98355.44
2022-11-25T06:26:19.877Z,98359.69
2022-11-25T06:28:48.491Z,98355.50
2022-11-25T06:31:20.603Z,98360.53
2022-11-25T06:34:15.334Z,98355.19
2022-11-25T06:36:43.447Z,98356.44
2022-11-25T06:39:11.387Z,98361.41
2022-11-25T06:41:39.271Z,98364.97
2022-11-25T06:44:07.226Z,98366.69
2022-11-25T06:46:36.521Z,98368.88
2022-11-25T06:49:04.945Z,98365.06
2022-11-25T06:51:32.905Z,98371.56
2022-11-25T06:54:00.853Z,98376.19
2022-11-25T06:56:30.279Z,98370.66
2022-11-25T06:58:58.334Z,98378.19
2022-11-25T07:01:28.330Z,98369.84
2022-11-25T07:04:00.740Z,98376.44
2022-11-25T07:06:29.236Z,98367.38
2022-11-25T07:08:58.048Z,98378.22
2022-11-25T07:11:27.670Z,98374.75
2022-11-25T07:13:58.680Z,98376.47
2022-11-25T07:16:27.183Z,98370.50
2022-11-25T07:18:55.192Z,98376.28
2022-11-25T07:21:26.197Z,98374.97
2022-11-25T07:23:54.484Z,98379.66
2022-11-25T07:26:25.351Z,98375.41
2022-11-25T07:28:54.798Z,98381.97
2022-11-25T07:31:29.073Z,98380.44
2022-11-25T07:34:01.442Z,98381.75
2022-11-25T07:36:31.789Z,98376.94
2022-11-25T07:39:01.943Z,98390.28
2022-11-25T07:41:30.690Z,98384.28
2022-11-25T07:44:00.448Z,98393.34
2022-11-25T07:46:32.356Z,98401.66
2022-11-25T07:49:03.711Z,98401.56
2022-11-25T07:51:34.947Z,98403.41
2022-11-25T07:54:04.938Z,98402.97
2022-11-25T07:56:34.578Z,98404.16
2022-11-25T07:59:02.631Z,98410.50
2022-11-25T08:01:30.620Z,98410.19
2022-11-25T08:03:59.345Z,98420.13
2022-11-25T08:06:29.047Z,98421.00
2022-11-25T08:09:03.416Z,98423.38
2022-11-25T08:11:33.169Z,98427.88
2022-11-25T08:14:01.502Z,98425.25
2022-11-25T08:16:31.623Z,98430.59
2022-11-25T08:19:00.482Z,98423.84
2022-11-25T08:21:28.634Z,98430.69
2022-11-25T08:23:58.272Z,98430.13
2022-11-25T08:26:31.239Z,98426.81
2022-11-25T08:29:00.048Z,98426.28
2022-11-25T08:31:30.130Z,98433.28
2022-11-25T08:33:58.940Z,98433.84
2022-11-25T08:36:27.523Z,98437.41
2022-11-25T08:38:57.951Z,98441.03
2022-11-25T08:41:29.951Z,98444.41
2022-11-25T08:43:59.227Z,98447.06
2022-11-25T08:46:30.217Z,98448.03
2022-11-25T08:48:58.279Z,98446.38
2022-11-25T08:51:30.163Z,98438.88
2022-11-25T08:53:58.787Z,98444.44
2022-11-25T08:56:28.415Z,98445.75
2022-11-25T08:58:56.932Z,98443.22
2022-11-25T09:01:25.956Z,98449.41
2022-11-25T09:03:56.527Z,98449.31
2022-11-25T09:06:25.903Z,98453.72
2022-11-25T09:08:57.313Z,98452.00
2022-11-25T09:11:26.488Z,98449.56
2022-11-25T09:13:56.130Z,98461.72
2022-11-25T09:16:26.598Z,98451.19
2022-11-25T09:18:56.347Z,98453.34
2022-11-25T09:21:25.853Z,98453.13
2022-11-25T09:23:54.799Z,98456.03
2022-11-25T09:26:25.421Z,98454.00
2022-11-25T09:28:53.633Z,98459.88
2022-11-25T09:31:24.161Z,98456.53
2022-11-25T09:33:52.196Z,98459.41
2022-11-25T09:36:21.808Z,98459.19
2022-11-25T09:38:49.765Z,98459.66
2022-11-25T09:41:52.416Z,98460.78
2022-11-25T09:44:53.111Z,98461.28
2022-11-25T09:47:31.974Z,98463.09
2022-11-25T09:50:14.377Z,98457.22
2022-11-25T09:52:49.363Z,98454.56
2022-11-25T09:55:20.586Z,98455.31
2022-11-25T09:58:04.546Z,98458.28
2022-11-25T10:00:39.150Z,98461.28
2022-11-25T10:03:18.307Z,98454.69
2022-11-25T10:05:58.923Z,98458.38
2022-11-25T10:08:31.125Z,98458.00
2022-11-25T10:11:04.098Z,98460.00
2022-11-25T10:13:43.099Z,98461.47
2022-11-25T10:16:21.774Z,98455.16
2022-11-25T10:19:00.546Z,98458.03
2022-11-25T10:21:29.472Z,98458.09
2022-11-25T10:23:58.012Z,98450.31
2022-11-25T10:26:33.817Z,98457.88
2022-11-25T10:29:20.638Z,98456.38
2022-11-25T10:31:52.217Z,98458.56
2022-11-25T10:34:33.457Z,98457.13
2022-11-25T10:37:03.620Z,98461.09
2022-11-25T10:39:35.224Z,98459.78
2022-11-25T10:42:08.307Z,98462.72
2022-11-25T10:44:38.134Z,98462.22
2022-11-25T10:47:36.787Z,98466.84
2022-11-25T10:50:23.604Z,98463.19
2022-11-25T10:52:58.399Z,98467.09
2022-11-25T10:55:28.804Z,98471.06
2022-11-25T10:57:57.519Z,98460.72
2022-11-25T11:00:32.327Z,98462.75
2022-11-25T11:03:14.108Z,98464.41
2022-11-25T11:05:47.832Z,98458.47
2022-11-25T11:08:21.441Z,98458.50
2022-11-25T11:11:12.520Z,98458.97
2022-11-25T11:13:41.357Z,98462.41
2022-11-25T11:16:24.861Z,98464.13
2022-11-25T11:18:53.423Z,98462.53
2022-11-25T11:21:31.433Z,98468.59
2022-11-25T11:24:00.839Z,98459.38
2022-11-25T11:26:30.652Z,98458.78
2022-11-25T11:29:01.329Z,98456.69
2022-11-25T11:31:34.191Z,98462.94
2022-11-25T11:34:14.772Z,98463.56
2022-11-25T11:36:57.306Z,98467.41
2022-11-25T11:39:37.836Z,98465.25
2022-11-25T11:42:13.182Z,98462.50
2022-11-25T11:44:52.202Z,98456.41
2022-11-25T11:47:28.467Z,98467.22
2022-11-25T11:50:24.468Z,98470.63
2022-11-25T11:52:59.048Z,98469.81
2022-11-25T11:56:05.531Z,98472.91
2022-11-25T11:58:50.783Z,98475.16
2022-11-25T12:01:37.927Z,98475.00
2022-11-25T12:04:20.861Z,98476.97
2022-11-25T12:07:03.683Z,98470.09
2022-11-25T12:09:36.691Z,98470.09
2022-11-25T12:12:10.625Z,98477.28
2022-11-25T12:14:44.033Z,98467.97
2022-11-25T12:17:18.407Z,98478.97
2022-11-25T12:19:54.758Z,98484.47
2022-11-25T12:22:28.155Z,98488.28
2022-11-25T12:25:07.491Z,98489.53
2022-11-25T12:27:39.957Z,98491.81
2022-11-25T12:30:11.643Z,98490.75
2022-11-25T12:32:52.353Z,98494.13
2022-11-25T12:35:27.729Z,98491.38
2022-11-25T12:38:03.957Z,98496.69
2022-11-25T12:40:38.018Z,98489.38
2022-11-25T12:43:18.981Z,98488.91
2022-11-25T12:45:52.424Z,98491.66
2022-11-25T12:48:21.678Z,98492.41
2022-11-25T12:51:01.471Z,98497.63
2022-11-25T12:53:36.294Z,98494.41
2022-11-25T12:56:14.387Z,98491.81
2022-11-25T12:59:00.793Z,98486.78
2022-11-25T13:01:51.099Z,98490.59
2022-11-25T13:04:50.071Z,98489.38
2022-11-25T13:07:30.673Z,98494.41
2022-11-25T13:10:28.364Z,98492.13
2022-11-25T13:13:18.243Z,98496.53
2022-11-25T13:15:49.089Z,98494.56
2022-11-25T13:18:19.860Z,98489.22
2022-11-25T13:20:50.951Z,98493.50
2022-11-25T13:23:49.113Z,98492.44
2022-11-25T13:26:48.558Z,98500.38
2022-11-25T13:29:58.770Z,98496.09
2022-11-25T13:32:46.138Z,98497.47
2022-11-25T13:35:51.692Z,98506.19
2022-11-25T13:39:00.621Z,98494.69
2022-11-25T13:41:42.970Z,98496.69
2022-11-25T13:44:22.366Z,98501.56
2022-11-25T13:46:52.665Z,98500.94
2022-11-25T13:49:29.798Z,98500.19
2022-11-25T13:52:00.716Z,98507.50
2022-11-25T13:54:36.832Z,98505.81
2022-11-25T13:57:28.355Z,98507.81
2022-11-25T13:59:59.201Z,98504.91
2022-11-25T14:02:46.141Z,98514.06
2022-11-25T14:05:48.663Z,98514.38
2022-11-25T14:08:23.680Z,98511.59
2022-11-25T14:11:01.106Z,98511.75
2022-11-25T14:14:02.773Z,98509.34
2022-11-25T14:16:55.652Z,98514.97
2022-11-25T14:20:04.752Z,98515.41
2022-11-25T14:22:47.671Z,98516.78
2022-11-25T14:25:22.287Z,98520.31
2022-11-25T14:27:57.294Z,98522.28
2022-11-25T14:30:27.765Z,98527.63
2022-11-25T14:32:59.822Z,98520.13
2022-11-25T14:35:36.191Z,98522.53
2022-11-25T14:38:12.057Z,98532.22
2022-11-25T14:40:48.009Z,98528.00
2022-11-25T14:43:23.279Z,98534.16
2022-11-25T14:46:10.914Z,98536.75
2022-11-25T14:48:40.000Z,98535.97
2022-11-25T14:51:10.211Z,98534.59
2022-11-25T14:53:47.832Z,98538.31
2022-11-25T14:56:22.209Z,98546.09
2022-11-25T14:58:52.295Z,98539.03
2022-11-25T15:01:22.115Z,98546.38
2022-11-25T15:03:51.775Z,98553.84
2022-11-25T15:06:21.156Z,98547.59
2022-11-25T15:08:59.868Z,98551.56
2022-11-25T15:11:31.745Z,98544.94
2022-11-25T15:14:03.935Z,98546.03
2022-11-25T15:16:35.321Z,98548.38
2022-11-25T15:19:06.512Z,98553.66
2022-11-25T15:21:53.796Z,98561.72
2022-11-25T15:24:29.958Z,98554.94
2022-11-25T15:27:02.668Z,98558.84
2022-11-25T15:29:32.287Z,98560.28
2022-11-25T15:32:01.661Z,98559.66
2022-11-25T15:34:30.860Z,98564.13
2022-11-25T15:37:02.850Z,98564.25
2022-11-25T15:39:32.245Z,98562.16
2022-11-25T15:42:08.951Z,98560.94
2022-11-25T15:44:41.793Z,98554.41
2022-11-25T15:47:22.206Z,98554.88
2022-11-25T15:50:01.412Z,98549.13
2022-11-25T15:52:31.781Z,98559.09
2022-11-25T15:55:06.599Z,98552.25
2022-11-25T15:57:36.556Z,98553.22
2022-11-25T16:00:19.127Z,98549.69
2022-11-25T16:02:53.532Z,98557.16
2022-11-25T16:05:35.660Z,98553.97
2022-11-25T16:08:24.716Z,98555.00
2022-11-25T16:10:59.553Z,98555.75
2022-11-25T16:13:38.286Z,98559.41
2022-11-25T16:16:19.858Z,98561.25
2022-11-25T16:19:11.658Z,98558.06
2022-11-25T16:21:44.169Z,98561.91
2022-11-25T16:24:27.984Z,98567.25
2022-11-25T16:27:01.254Z,98568.00
2022-11-25T16:29:33.386Z,98569.53
2022-11-25T16:32:02.220Z,98569.41
2022-11-25T16:34:30.900Z,98571.25
2022-11-25T16:36:58.794Z,98576.53
2022-11-25T16:39:26.776Z,98578.97
2022-11-25T16:41:58.736Z,98578.09
2022-11-25T16:44:28.593Z,98580.78
2022-11-25T16:46:57.156Z,98580.69
2022-11-25T16:49:25.927Z,98577.41
2022-11-25T16:51:54.428Z,98581.84
2022-11-25T16:54:23.855Z,98579.56
2022-11-25T16:56:54.049Z,98579.63
2022-11-25T16:59:30.276Z,98577.88
2022-11-25T17:01:59.174Z,98570.88
2022-11-25T17:04:27.330Z,98586.72
2022-11-25T17:07:30.463Z,98580.38
2022-11-25T17:09:45.084Z,98583.19
2022-11-25T17:12:17.338Z,98574.84
2022-11-25T17:14:49.233Z,98583.25
2022-11-25T17:17:24.690Z,98586.44
2022-11-25T17:19:53.336Z,98582.94
2022-11-25T17:22:23.096Z,98580.50
2022-11-25T17:24:51.303Z,98587.97
2022-11-25T17:27:25.154Z,98592.53
2022-11-25T17:29:56.026Z,98599.47
2022-11-25T17:32:25.521Z,98597.75
2022-11-25T17:34:53.497Z,98593.66
2022-11-25T17:37:23.987Z,98599.97
2022-11-25T17:39:52.778Z,98602.84
2022-11-25T17:42:24.982Z,98604.94
2022-11-25T17:44:54.592Z,98610.63
2022-11-25T17:47:22.706Z,98613.22
2022-11-25T17:49:50.652Z,98610.47
2022-11-25T17:52:18.749Z,98607.06
2022-11-25T17:54:46.731Z,98609.19
2022-11-25T17:57:18.387Z,98607.34
2022-11-25T17:59:46.433Z,98613.91
2022-11-25T18:02:20.118Z,98616.09
2022-11-25T18:04:48.821Z,98613.00
2022-11-25T18:07:16.894Z,98612.81
2022-11-25T18:09:45.495Z,98607.66
2022-11-25T18:12:17.844Z,98616.41
2022-11-25T18:14:46.456Z,98615.03
2022-11-25T18:17:18.074Z,98622.28
2022-11-25T18:19:54.457Z,98619.84
2022-11-25T18:22:24.651Z,98618.22
2022-11-25T18:24:53.784Z,98623.31
2022-11-25T18:27:24.667Z,98624.84
2022-11-25T18:29:53.402Z,98636.06
2022-11-25T18:32:22.776Z,98643.13
2022-11-25T18:34:52.710Z,98641.59
2022-11-25T18:37:21.651Z,98639.47
2022-11-25T18:39:49.781Z,98649.31
2022-11-25T18:42:25.718Z,98646.47
2022-11-25T18:44:54.871Z,98640.22
2022-11-25T18:47:22.870Z,98653.19
2022-11-25T18:49:55.932Z,98649.69
2022-11-25T18:52:24.900Z,98649.50
2022-11-25T18:54:53.077Z,98641.59
2022-11-25T18:57:21.164Z,98643.59
2022-11-25T19:00:00.197Z,98643.88
2022-11-25T19:02:38.181Z,98641.25
2022-11-25T19:05:16.434Z,98636.78
2022-11-25T19:07:44.696Z,98630.66
2022-11-25T19:10:13.913Z,98637.00
2022-11-25T19:12:44.570Z,98641.50
2022-11-25T19:15:15.630Z,98641.16
2022-11-25T19:17:45.643Z,98645.66
2022-11-25T19:20:17.211Z,98651.44
2022-11-25T19:22:45.274Z,98658.44
2022-11-25T19:25:13.929Z,98659.00
2022-11-25T19:27:45.486Z,98656.22
2022-11-25T19:30:17.630Z,98657.88
2022-11-25T19:32:47.535Z,98656.94
2022-11-25T19:35:27.499Z,98661.88
2022-11-25T19:37:55.441Z,98659.69
2022-11-25T19:40:25.227Z,98668.59
2022-11-25T19:42:53.134Z,98668.28
2022-11-25T19:45:22.161Z,98674.66
2022-11-25T19:47:56.946Z,98687.69
2022-11-25T19:50:29.318Z,98679.91
2022-11-25T19:52:57.236Z,98680.75
2022-11-25T19:55:27.344Z,98681.84
2022-11-25T19:57:55.805Z,98679.53
2022-11-25T20:00:25.297Z,98691.28
2022-11-25T20:02:55.811Z,98684.81
2022-11-25T20:05:30.339Z,98688.09
2022-11-25T20:07:58.452Z,98690.19
2022-11-25T20:10:28.745Z,98700.63
2022-11-25T20:12:58.003Z,98698.34
2022-11-25T20:15:27.133Z,98702.66
2022-11-25T20:17:59.648Z,98696.88
2022-11-25T20:20:33.323Z,98700.63
2022-11-25T20:23:05.871Z,98694.56
2022-11-25T20:25:37.476Z,98699.00
2022-11-25T20:28:10.516Z,98700.31
2022-11-25T20:30:38.400Z,98703.28
2022-11-25T20:33:06.454Z,98714.06
2022-11-25T20:35:35.993Z,98708.00
2022-11-25T20:38:04.131Z,98706.00
2022-11-25T20:40:39.056Z,98717.19
2022-11-25T20:43:07.892Z,98715.84
2022-11-25T20:45:35.915Z,98720.06
2022-11-25T20:48:11.553Z,98722.91
2022-11-25T20:50:40.869Z,98713.31
2022-11-25T20:53:15.726Z,98722.97
2022-11-25T20:55:44.624Z,98715.28
2022-11-25T20:58:21.894Z,98714.03
2022-11-25T21:00:55.573Z,98721.38
2022-11-25T21:03:25.257Z,98730.25
2022-11-25T21:05:57.871Z,98725.63
2022-11-25T21:08:29.307Z,98732.19
2022-11-25T21:10:59.325Z,98723.78
2022-11-25T21:13:29.520Z,98730.78
2022-11-25T21:15:58.020Z,98733.16
2022-11-25T21:18:26.437Z,98729.72
2022-11-25T21:20:58.261Z,98736.88
2022-11-25T21:23:29.032Z,98737.44
2022-11-25T21:26:04.473Z,98745.13
2022-11-25T21:28:33.373Z,98739.78
2022-11-25T21:31:01.290Z,98736.94
2022-11-25T21:33:29.229Z,98742.38
2022-11-25T21:35:58.586Z,98743.72
2022-11-25T21:38:28.452Z,98734.41
2022-11-25T21:40:58.354Z,98738.66
2022-11-25T21:43:29.429Z,98745.09
2022-11-25T21:46:02.878Z,98743.75
2022-11-25T21:48:31.469Z,98748.72
2022-11-25T21:51:01.251Z,98744.81
2022-11-25T21:53:33.163Z,98740.66
2022-11-25T21:56:04.036Z,98751.13
2022-11-25T21:58:32.484Z,98747.69
2022-11-25T22:01:02.704Z,98747.16
2022-11-25T22:03:32.469Z,98751.59
2022-11-25T22:06:01.832Z,98761.78
2022-11-25T22:08:29.787Z,98754.47
2022-11-25T22:10:57.726Z,98762.34
2022-11-25T22:13:33.386Z,98760.25
2022-11-25T22:16:01.710Z,98767.84
2022-11-25T22:18:32.541Z,98769.38
2022-11-25T22:21:02.472Z,98770.91
2022-11-25T22:23:30.731Z,98773.59
2022-11-25T22:25:58.946Z,98763.88
2022-11-25T22:28:28.634Z,98765.63
2022-11-25T22:30:58.834Z,98777.44
2022-11-25T22:33:31.660Z,98774.22
2022-11-25T22:36:01.111Z,98775.75
2022-11-25T22:38:30.517Z,98770.13
2022-11-25T22:41:01.409Z,98776.09
2022-11-25T22:43:32.897Z,98768.28
2022-11-25T22:46:01.199Z,98774.94
2022-11-25T22:48:33.046Z,98771.59
2022-11-25T22:51:02.845Z,98773.75
2022-11-25T22:53:30.975Z,98772.47
2022-11-25T22:55:59.118Z,98775.16
2022-11-25T22:58:29.231Z,98782.25
2022-11-25T23:00:58.201Z,98774.84
2022-11-25T23:03:29.321Z,98786.66
2022-11-25T23:05:58.393Z,98785.84
2022-11-25T23:08:31.717Z,98779.16
2022-11-25T23:11:00.017Z,98783.44
2022-11-25T23:13:28.159Z,98787.00
2022-11-25T23:15:58.241Z,98791.88
2022-11-25T23:18:31.757Z,98793.81
2022-11-25T23:21:02.096Z,98788.88
2022-11-25T23:23:31.873Z,98793.78
2022-11-25T23:26:00.264Z,98796.44
2022-11-25T23:28:28.176Z,98794.00
2022-11-25T23:30:57.434Z,98798.34
2022-11-25T23:33:30.800Z,98796.06
2022-11-25T23:36:02.470Z,98798.56
2022-11-25T23:38:34.471Z,98806.13
2022-11-25T23:41:02.524Z,98799.09
2022-11-25T23:43:30.818Z,98803.97
2022-11-25T23:45:58.880Z,98795.31
2022-11-25T23:48:31.157Z,98799.44
2022-11-25T23:51:00.366Z,98797.97
2022-11-25T23:53:31.454Z,98797.94
2022-11-25T23:56:00.953Z,98807.09
2022-11-25T23:58:29.152Z,98805.44
